createdAt,value
2018-12-05T00:01:41.187Z,1.60
2018-12-05T00:04:12.001Z,1.60
2018-12-05T00:06:40.606Z,1.60
2018-12-05T00:09:14.295Z,1.60
2018-12-05T00:14:16.087Z,1.70
2018-12-05T00:16:47.279Z,1.70
2018-12-05T00:19:20.813Z,1.70
2018-12-05T00:21:54.181Z,1.70
2018-12-05T00:27:29.503Z,1.70
2018-12-05T00:30:00.202Z,1.70
2018-12-05T00:32:31.006Z,1.60
2018-12-05T00:35:04.415Z,1.60
2018-12-05T00:37:33.395Z,1.60
2018-12-05T00:40:19.771Z,1.60
2018-12-05T00:42:49.119Z,1.60
2018-12-05T00:45:19.758Z,1.60
2018-12-05T00:47:52.910Z,1.60
2018-12-05T00:50:26.267Z,1.60
2018-12-05T00:52:59.579Z,1.60
2018-12-05T00:58:35.520Z,1.60
2018-12-05T01:01:08.736Z,1.60
2018-12-05T01:03:46.833Z,1.60
2018-12-05T01:06:22.011Z,1.60
2018-12-05T01:09:02.017Z,1.60
2018-12-05T01:17:02.111Z,1.70
2018-12-05T01:25:07.059Z,1.70
2018-12-05T01:27:40.424Z,1.70
2018-12-05T01:30:09.313Z,1.60
2018-12-05T01:32:42.722Z,1.60
2018-12-05T01:35:14.406Z,1.60
2018-12-05T01:37:47.848Z,1.60
2018-12-05T01:40:16.639Z,1.50
2018-12-05T01:42:47.209Z,1.50
2018-12-05T01:45:18.638Z,1.60
2018-12-05T01:47:49.996Z,1.60
2018-12-05T01:50:20.636Z,1.60
2018-12-05T01:55:44.939Z,1.60
2018-12-05T01:58:15.908Z,1.50
2018-12-05T02:00:49.017Z,1.50
2018-12-05T02:03:19.679Z,1.50
2018-12-05T02:05:50.410Z,1.50
2018-12-05T02:08:23.873Z,1.50
2018-12-05T02:10:57.295Z,1.40
2018-12-05T02:13:28.059Z,1.50
2018-12-05T02:15:58.620Z,1.50
2018-12-05T02:18:29.401Z,1.50
2018-12-05T02:21:00.248Z,1.40
2018-12-05T02:31:10.811Z,1.30
2018-12-05T02:33:41.575Z,1.30
2018-12-05T02:36:12.242Z,1.30
2018-12-05T02:38:45.738Z,1.30
2018-12-05T02:41:19.079Z,1.30
2018-12-05T02:43:52.670Z,1.30
2018-12-05T02:46:26.008Z,1.20
2018-12-05T02:48:56.669Z,1.30
2018-12-05T02:51:30.014Z,1.30
2018-12-05T02:54:00.737Z,1.30
2018-12-05T02:56:29.263Z,1.30
2018-12-05T02:59:00.020Z,1.30
2018-12-05T03:01:30.763Z,1.30
2018-12-05T03:07:03.299Z,1.40
2018-12-05T03:09:38.637Z,1.50
2018-12-05T03:12:09.311Z,1.50
2018-12-05T03:14:44.113Z,1.50
2018-12-05T03:17:17.924Z,1.60
2018-12-05T03:19:51.651Z,1.60
2018-12-05T03:22:24.884Z,1.60
2018-12-05T03:24:55.864Z,1.60
2018-12-05T03:27:26.561Z,1.60
2018-12-05T03:29:59.716Z,1.60
2018-12-05T03:32:30.452Z,1.60
2018-12-05T03:35:03.862Z,1.70
2018-12-05T03:40:05.166Z,1.70
2018-12-05T03:42:36.656Z,1.70
2018-12-05T03:45:07.745Z,1.70
2018-12-05T03:47:38.346Z,1.70
2018-12-05T03:50:11.861Z,1.80
2018-12-05T03:52:42.403Z,1.70
2018-12-05T03:55:15.748Z,1.70
2018-12-05T03:57:47.087Z,1.80
2018-12-05T04:00:18.410Z,1.80
2018-12-05T04:02:49.018Z,1.80
2018-12-05T04:05:20.316Z,1.80
2018-12-05T04:07:51.721Z,1.80
2018-12-05T04:10:22.457Z,1.80
2018-12-05T04:12:56.021Z,1.80
2018-12-05T04:15:24.793Z,1.70
2018-12-05T04:17:57.944Z,1.70
2018-12-05T04:20:28.800Z,1.70
2018-12-05T04:23:01.925Z,1.60
2018-12-05T04:25:35.536Z,1.60
2018-12-05T04:28:09.232Z,1.60
2018-12-05T04:30:40.277Z,1.50
2018-12-05T04:33:14.219Z,1.50
2018-12-05T04:35:49.668Z,1.60
2018-12-05T04:38:17.983Z,1.50
2018-12-05T04:40:58.579Z,1.50
2018-12-05T04:43:31.741Z,1.60
2018-12-05T04:46:02.611Z,1.50
2018-12-05T04:48:33.654Z,1.60
2018-12-05T04:51:04.988Z,1.60
2018-12-05T04:53:35.714Z,1.60
2018-12-05T04:56:06.959Z,1.60
2018-12-05T04:58:37.435Z,1.70
2018-12-05T05:01:10.882Z,1.70
2018-12-05T05:03:44.748Z,1.70
2018-12-05T05:06:28.568Z,1.80
2018-12-05T05:08:59.647Z,1.80
2018-12-05T05:11:33.066Z,1.90
2018-12-05T05:14:06.527Z,1.80
2018-12-05T05:16:37.096Z,1.90
2018-12-05T05:19:10.689Z,1.90
2018-12-05T05:21:44.129Z,1.90
2018-12-05T05:24:13.808Z,2.00
2018-12-05T05:26:44.957Z,2.00
2018-12-05T05:29:15.993Z,2.00
2018-12-05T05:32:02.409Z,1.90
2018-12-05T05:37:29.360Z,2.00
2018-12-05T05:40:02.551Z,2.00
2018-12-05T05:42:31.343Z,2.00
2018-12-05T05:45:04.995Z,2.00
2018-12-05T05:47:35.775Z,2.00
2018-12-05T05:50:08.715Z,2.00
2018-12-05T05:52:41.848Z,2.00
2018-12-05T05:55:15.547Z,2.00
2018-12-05T05:57:46.855Z,2.00
2018-12-05T06:00:20.399Z,2.00
2018-12-05T06:02:54.427Z,2.00
2018-12-05T06:05:35.904Z,2.00
2018-12-05T06:08:10.429Z,1.90
2018-12-05T06:10:44.970Z,1.90
2018-12-05T06:16:14.759Z,2.00
2018-12-05T06:18:43.644Z,2.00
2018-12-05T06:21:17.268Z,1.90
2018-12-05T06:23:48.031Z,1.90
2018-12-05T06:26:21.200Z,1.80
2018-12-05T06:28:52.218Z,1.80
2018-12-05T06:31:25.751Z,1.80
2018-12-05T06:33:56.542Z,1.80
2018-12-05T06:36:29.787Z,1.90
2018-12-05T06:41:56.489Z,1.90
2018-12-05T06:44:26.874Z,1.90
2018-12-05T06:46:57.784Z,1.90
2018-12-05T06:49:27.000Z,1.90
2018-12-05T06:52:00.322Z,1.90
2018-12-05T06:54:31.184Z,1.90
2018-12-05T06:57:01.978Z,1.90
2018-12-05T06:59:32.716Z,1.90
2018-12-05T07:02:03.107Z,1.90
2018-12-05T07:04:33.761Z,1.80
2018-12-05T07:07:04.408Z,1.80
2018-12-05T07:09:38.659Z,1.80
2018-12-05T07:12:07.612Z,1.80
2018-12-05T07:14:41.035Z,1.80
2018-12-05T07:17:15.322Z,1.90
2018-12-05T07:19:49.158Z,1.90
2018-12-05T07:22:29.284Z,1.90
2018-12-05T07:24:58.547Z,1.90
2018-12-05T07:27:32.036Z,1.90
2018-12-05T07:30:02.965Z,1.90
2018-12-05T07:32:32.288Z,1.90
2018-12-05T07:35:02.688Z,2.00
2018-12-05T07:37:36.928Z,1.90
2018-12-05T07:40:17.234Z,2.00
2018-12-05T07:42:47.902Z,1.90
2018-12-05T07:48:19.888Z,1.90
2018-12-05T07:50:49.288Z,1.90
2018-12-05T07:55:54.023Z,1.90
2018-12-05T07:58:25.211Z,1.90
2018-12-05T08:00:59.023Z,1.90
2018-12-05T08:03:29.699Z,1.90
2018-12-05T08:06:03.087Z,2.00
2018-12-05T08:08:33.869Z,2.00
2018-12-05T08:11:02.294Z,2.10
2018-12-05T08:13:32.951Z,2.10
2018-12-05T08:16:03.750Z,2.20
2018-12-05T08:18:50.397Z,2.20
2018-12-05T08:24:20.759Z,2.40
2018-12-05T08:26:58.370Z,2.50
2018-12-05T08:29:33.390Z,2.50
2018-12-05T08:32:02.084Z,2.60
2018-12-05T08:34:35.366Z,2.70
2018-12-05T08:37:08.717Z,2.70
2018-12-05T08:39:39.404Z,2.80
2018-12-05T08:42:13.252Z,2.80
2018-12-05T08:47:35.107Z,2.90
2018-12-05T08:50:18.968Z,2.90
2018-12-05T08:52:54.896Z,3.00
2018-12-05T08:55:28.535Z,3.30
2018-12-05T08:58:02.009Z,3.50
2018-12-05T09:00:32.628Z,3.70
2018-12-05T09:03:06.260Z,3.80
2018-12-05T09:05:39.531Z,4.00
2018-12-05T09:08:15.175Z,4.20
2018-12-05T09:10:49.711Z,4.30
2018-12-05T09:13:24.965Z,4.30
2018-12-05T09:15:56.213Z,4.40
2018-12-05T09:18:30.717Z,4.40
2018-12-05T09:21:04.577Z,4.50
2018-12-05T09:23:35.154Z,4.60
2018-12-05T09:26:05.923Z,4.70
2018-12-05T09:28:36.565Z,4.60
2018-12-05T09:31:10.618Z,4.50
2018-12-05T09:33:46.031Z,4.60
2018-12-05T09:36:23.525Z,4.50
2018-12-05T09:41:54.449Z,4.30
2018-12-05T09:44:25.237Z,4.30
2018-12-05T09:47:02.449Z,4.50
2018-12-05T09:49:36.111Z,4.60
2018-12-05T09:52:09.763Z,4.60
2018-12-05T09:54:43.630Z,4.50
2018-12-05T09:57:16.891Z,4.60
2018-12-05T09:59:54.368Z,4.60
2018-12-05T10:02:23.163Z,4.70
2018-12-05T10:04:54.351Z,4.80
2018-12-05T10:07:25.535Z,4.80
2018-12-05T10:09:58.661Z,4.80
2018-12-05T10:12:32.938Z,4.80
2018-12-05T10:15:06.599Z,4.80
2018-12-05T10:17:37.163Z,4.90
2018-12-05T10:20:10.665Z,5.00
2018-12-05T10:22:45.218Z,5.00
2018-12-05T10:25:15.670Z,5.00
2018-12-05T10:27:51.632Z,5.00
2018-12-05T10:30:22.307Z,5.00
2018-12-05T10:32:57.594Z,5.00
2018-12-05T10:35:40.038Z,5.10
2018-12-05T10:38:11.196Z,5.20
2018-12-05T10:40:41.891Z,5.20
2018-12-05T10:43:12.688Z,5.30
2018-12-05T10:45:45.003Z,5.20
2018-12-05T10:48:32.058Z,5.20
2018-12-05T10:51:05.213Z,5.20
2018-12-05T10:53:36.193Z,5.20
2018-12-05T10:56:09.529Z,5.20
2018-12-05T11:01:43.987Z,5.20
2018-12-05T11:04:17.930Z,5.30
2018-12-05T11:06:57.348Z,5.30
2018-12-05T11:09:34.035Z,5.40
2018-12-05T11:12:15.801Z,5.40
2018-12-05T11:14:52.680Z,5.50
2018-12-05T11:17:35.614Z,5.60
2018-12-05T11:20:15.153Z,5.50
2018-12-05T11:22:56.577Z,5.60
2018-12-05T11:25:34.688Z,5.60
2018-12-05T11:28:05.362Z,5.70
2018-12-05T11:33:34.687Z,5.60
2018-12-05T11:36:07.797Z,5.60
2018-12-05T11:38:43.216Z,5.60
2018-12-05T11:41:16.942Z,5.70
2018-12-05T11:43:47.759Z,5.80
2018-12-05T11:46:18.387Z,5.90
2018-12-05T11:48:49.699Z,5.90
2018-12-05T11:51:23.361Z,6.00
2018-12-05T11:53:56.708Z,6.10
2018-12-05T11:56:31.824Z,6.20
2018-12-05T11:59:05.353Z,6.30
2018-12-05T12:01:38.827Z,6.30
2018-12-05T12:04:13.011Z,6.30
2018-12-05T12:06:45.367Z,6.30
2018-12-05T12:09:18.958Z,6.40
2018-12-05T12:14:45.378Z,6.30
2018-12-05T12:17:18.922Z,6.30
2018-12-05T12:19:47.802Z,6.40
2018-12-05T12:22:21.016Z,6.30
2018-12-05T12:24:54.494Z,6.30
2018-12-05T12:27:34.742Z,6.30
2018-12-05T12:30:17.413Z,6.20
2018-12-05T12:32:52.297Z,6.10
2018-12-05T12:35:25.784Z,6.20
2018-12-05T12:38:03.036Z,6.20
2018-12-05T12:40:36.790Z,6.20
2018-12-05T12:43:12.161Z,6.30
2018-12-05T12:45:44.141Z,6.30
2018-12-05T12:48:15.888Z,6.30
2018-12-05T12:50:53.019Z,5.60
2018-12-05T12:53:26.837Z,6.40
2018-12-05T12:55:57.308Z,6.30
2018-12-05T12:58:31.634Z,6.40
2018-12-05T13:01:09.341Z,6.40
2018-12-05T13:03:40.197Z,6.50
2018-12-05T13:06:10.817Z,6.50
2018-12-05T13:08:48.014Z,6.60
2018-12-05T13:11:23.572Z,6.50
2018-12-05T13:13:52.518Z,6.40
2018-12-05T13:16:27.673Z,6.30
2018-12-05T13:19:02.470Z,6.30
2018-12-05T13:21:36.062Z,6.40
2018-12-05T13:24:13.522Z,6.40
2018-12-05T13:26:46.894Z,6.40
2018-12-05T13:29:20.227Z,6.40
2018-12-05T13:31:51.336Z,6.30
2018-12-05T13:34:19.856Z,6.30
2018-12-05T13:36:53.519Z,6.20
2018-12-05T13:39:22.819Z,6.20
2018-12-05T13:41:56.968Z,6.30
2018-12-05T13:44:44.477Z,6.30
2018-12-05T13:47:13.814Z,6.40
2018-12-05T13:49:43.891Z,6.50
2018-12-05T13:52:15.244Z,6.50
2018-12-05T13:54:49.452Z,6.50
2018-12-05T13:57:20.496Z,6.60
2018-12-05T13:59:51.426Z,6.60
2018-12-05T14:02:24.901Z,6.60
2018-12-05T14:04:55.552Z,6.60
2018-12-05T14:10:01.466Z,6.60
2018-12-05T14:12:32.240Z,6.60
2018-12-05T14:15:07.627Z,6.70
2018-12-05T14:17:44.852Z,6.70
2018-12-05T14:20:24.954Z,6.80
2018-12-05T14:22:58.627Z,6.80
2018-12-05T14:25:34.031Z,6.80
2018-12-05T14:28:07.852Z,6.80
2018-12-05T14:33:33.645Z,6.80
2018-12-05T14:36:08.033Z,6.80
2018-12-05T14:38:41.735Z,6.80
2018-12-05T14:41:15.041Z,6.80
2018-12-05T14:43:44.248Z,6.80
2018-12-05T14:46:18.303Z,6.80
2018-12-05T14:48:47.791Z,6.80
2018-12-05T14:51:25.061Z,6.80
2018-12-05T14:53:58.797Z,6.80
2018-12-05T14:56:36.043Z,6.80
2018-12-05T14:59:07.662Z,6.90
2018-12-05T15:01:41.117Z,6.80
2018-12-05T15:04:19.244Z,6.80
2018-12-05T15:06:54.094Z,6.90
2018-12-05T15:09:29.621Z,6.90
2018-12-05T15:12:03.541Z,6.90
2018-12-05T15:27:24.606Z,6.70
2018-12-05T15:35:41.568Z,6.50
2018-12-05T15:38:15.546Z,6.50
2018-12-05T15:40:49.000Z,6.40
2018-12-05T15:46:13.247Z,6.40
2018-12-05T15:48:40.725Z,6.30
2018-12-05T15:51:11.727Z,6.10
2018-12-05T15:53:45.002Z,6.00
2018-12-05T15:56:18.290Z,5.90
2018-12-05T15:58:49.245Z,5.90
2018-12-05T16:01:23.544Z,5.80
2018-12-05T16:03:54.478Z,5.80
2018-12-05T16:06:25.155Z,5.70
2018-12-05T16:11:59.924Z,5.70
2018-12-05T16:14:30.700Z,5.60
2018-12-05T16:17:04.046Z,5.60
2018-12-05T16:19:34.861Z,5.60
2018-12-05T16:22:05.179Z,5.50
2018-12-05T16:24:40.417Z,5.50
2018-12-05T16:27:15.852Z,5.40
2018-12-05T16:29:49.595Z,5.40
2018-12-05T16:32:23.199Z,5.40
2018-12-05T16:35:03.431Z,5.40
2018-12-05T16:37:37.339Z,5.40
2018-12-05T16:40:10.666Z,5.20
2018-12-05T16:42:45.188Z,5.20
2018-12-05T16:45:18.596Z,5.20
2018-12-05T16:47:56.042Z,5.20
2018-12-05T16:50:29.641Z,5.20
2018-12-05T16:53:00.617Z,5.20
2018-12-05T16:55:29.938Z,5.20
2018-12-05T16:58:04.187Z,5.20
2018-12-05T17:00:37.757Z,5.20
2018-12-05T17:03:10.964Z,5.20
2018-12-05T17:05:41.665Z,5.30
2018-12-05T17:08:12.973Z,5.20
2018-12-05T17:10:46.350Z,5.30
2018-12-05T17:13:19.820Z,5.30
2018-12-05T17:15:48.751Z,5.20
2018-12-05T17:18:22.249Z,5.10
2018-12-05T17:21:01.651Z,5.10
2018-12-05T17:26:37.175Z,5.10
2018-12-05T17:29:07.883Z,5.00
2018-12-05T17:31:38.882Z,4.90
2018-12-05T17:34:14.402Z,4.90
2018-12-05T17:36:45.883Z,4.90
2018-12-05T17:39:15.184Z,4.90
2018-12-05T17:41:46.478Z,5.00
2018-12-05T17:44:19.713Z,4.90
2018-12-05T17:49:47.621Z,4.90
2018-12-05T17:57:24.171Z,4.80
2018-12-05T17:59:57.623Z,4.80
2018-12-05T18:02:31.007Z,4.80
2018-12-05T18:05:04.583Z,4.80
2018-12-05T18:07:35.145Z,4.80
2018-12-05T18:10:05.873Z,4.80
2018-12-05T18:12:44.158Z,4.80
2018-12-05T18:15:21.594Z,4.80
2018-12-05T18:17:55.219Z,4.80
2018-12-05T18:20:26.247Z,4.80
2018-12-05T18:22:59.589Z,4.70
2018-12-05T18:25:30.504Z,4.80
2018-12-05T18:28:05.927Z,4.70
2018-12-05T18:30:36.679Z,4.80
2018-12-05T18:33:07.424Z,4.80
2018-12-05T18:35:38.114Z,4.70
2018-12-05T18:38:06.846Z,4.70
2018-12-05T18:40:42.320Z,4.80
2018-12-05T18:43:14.178Z,4.70
2018-12-05T18:45:51.586Z,4.80
2018-12-05T18:48:35.739Z,4.80
2018-12-05T18:54:08.620Z,4.80
2018-12-05T18:59:09.852Z,4.80
2018-12-05T19:09:26.809Z,4.70
2018-12-05T19:11:53.364Z,4.60
2018-12-05T19:14:33.111Z,4.60
2018-12-05T19:17:06.958Z,4.60
2018-12-05T19:19:41.904Z,4.60
2018-12-05T19:22:13.168Z,4.60
2018-12-05T19:24:47.562Z,4.60
2018-12-05T19:27:18.361Z,4.60
2018-12-05T19:29:49.214Z,4.60
2018-12-05T19:32:22.971Z,4.60
2018-12-05T19:34:58.734Z,4.60
2018-12-05T19:37:33.158Z,4.50
2018-12-05T19:40:07.005Z,4.40
2018-12-05T19:42:36.116Z,4.40
2018-12-05T19:45:16.829Z,4.40
2018-12-05T19:47:50.120Z,4.40
2018-12-05T19:50:20.852Z,4.50
2018-12-05T19:52:54.342Z,4.50
2018-12-05T19:55:27.787Z,4.50
2018-12-05T19:57:58.628Z,4.40
2018-12-05T20:00:27.325Z,4.40
2018-12-05T20:02:57.838Z,4.50
2018-12-05T20:05:27.237Z,4.50
2018-12-05T20:08:03.075Z,4.50
2018-12-05T20:10:33.896Z,4.50
2018-12-05T20:13:07.261Z,4.50
2018-12-05T20:15:47.539Z,4.60
2018-12-05T20:18:17.141Z,4.50
2018-12-05T20:20:47.681Z,4.60
2018-12-05T20:23:21.091Z,4.60
2018-12-05T20:25:51.863Z,4.60
2018-12-05T20:28:25.104Z,4.60
2018-12-05T20:30:55.921Z,4.60
2018-12-05T20:33:27.266Z,4.60
2018-12-05T20:36:01.172Z,4.60
2018-12-05T20:41:33.114Z,4.60
2018-12-05T20:44:06.083Z,4.60
2018-12-05T20:46:39.536Z,4.60
2018-12-05T20:49:10.532Z,4.50
2018-12-05T20:51:45.053Z,4.50
2018-12-05T20:54:18.508Z,4.60
2018-12-05T20:56:52.781Z,4.60
2018-12-05T20:59:23.651Z,4.60
2018-12-05T21:01:57.368Z,4.60
2018-12-05T21:04:30.749Z,4.60
2018-12-05T21:07:01.513Z,4.60
2018-12-05T21:09:32.085Z,4.50
2018-12-05T21:12:07.031Z,4.50
2018-12-05T21:14:37.896Z,4.50
2018-12-05T21:17:08.385Z,4.60
2018-12-05T21:19:39.705Z,4.60
2018-12-05T21:22:08.438Z,4.60
2018-12-05T21:24:41.684Z,4.70
2018-12-05T21:27:10.483Z,4.70
2018-12-05T21:29:41.208Z,4.70
2018-12-05T21:32:14.659Z,4.70
2018-12-05T21:34:45.903Z,4.80
2018-12-05T21:37:14.971Z,4.80
2018-12-05T21:39:48.829Z,4.80
2018-12-05T21:42:20.680Z,4.80
2018-12-05T21:45:00.514Z,4.80
2018-12-05T21:47:34.437Z,4.80
2018-12-05T21:50:08.048Z,4.80
2018-12-05T21:52:41.679Z,4.80
2018-12-05T21:55:15.627Z,4.80
2018-12-05T21:57:44.821Z,4.80
2018-12-05T22:00:19.979Z,4.80
2018-12-05T22:02:50.808Z,4.80
2018-12-05T22:05:24.026Z,4.90
2018-12-05T22:07:57.250Z,4.90
2018-12-05T22:10:27.110Z,4.80
2018-12-05T22:13:00.268Z,4.80
2018-12-05T22:15:31.053Z,4.90
2018-12-05T22:18:04.449Z,4.90
2018-12-05T22:20:39.912Z,4.90
2018-12-05T22:23:14.137Z,5.00
2018-12-05T22:28:45.065Z,5.00
2018-12-05T22:31:20.534Z,5.00
2018-12-05T22:33:51.580Z,5.00
2018-12-05T22:39:17.405Z,4.90
2018-12-05T22:41:50.732Z,5.00
2018-12-05T22:44:25.390Z,5.00
2018-12-05T22:46:56.357Z,5.00
2018-12-05T22:49:33.797Z,5.10
2018-12-05T22:52:01.326Z,5.20
2018-12-05T22:54:37.621Z,5.40
2018-12-05T22:57:11.960Z,5.40
2018-12-05T22:59:46.306Z,5.50
2018-12-05T23:02:20.432Z,5.60
2018-12-05T23:04:54.075Z,5.70
2018-12-05T23:07:22.851Z,5.70
2018-12-05T23:09:56.992Z,5.80
2018-12-05T23:12:27.964Z,5.80
2018-12-05T23:15:06.141Z,5.90
2018-12-05T23:17:39.377Z,5.80
2018-12-05T23:20:13.475Z,5.80
2018-12-05T23:22:44.950Z,5.70
2018-12-05T23:25:18.616Z,5.70
2018-12-05T23:27:49.128Z,5.70
2018-12-05T23:30:22.693Z,5.70
2018-12-05T23:32:53.300Z,5.70
2018-12-05T23:35:24.062Z,5.70
2018-12-05T23:37:51.515Z,5.70
2018-12-05T23:40:22.864Z,5.70
2018-12-05T23:42:56.326Z,5.70
2018-12-05T23:46:09.754Z,5.70
2018-12-05T23:48:40.343Z,5.70
2018-12-05T23:51:15.585Z,5.70
2018-12-05T23:53:46.760Z,5.70
2018-12-05T23:56:27.177Z,5.70
2018-12-05T23:59:00.633Z,5.60
